Time,TemperatureF,DewpointF,PressureIn,WindDirection,WindDirectionDegrees,WindSpeedMPH,WindSpeedGustMPH,Humidity,HourlyPrecipIn,Conditions,Clouds,dailyrainin,SoftwareType,DateUTC
2013-04-17 00:57:00,56.2,52.0,29.98,West,281,4.0,8.7,85,0.00,n/a,n/a,-99.99,Henriksen +1-Wire,2013-04-17 04:57:00,
2013-04-17 00:58:00,56.2,52.0,29.98,WNW,282,4.7,8.7,85,0.00,n/a,n/a,-99.99,Henriksen +1-Wire,2013-04-17 04:58:00,
2013-04-17 00:59:00,56.3,52.0,29.98,West,281,3.8,8.7,85,0.00,n/a,n/a,-99.99,Henriksen +1-Wire,2013-04-17 04:59:00,
2013-04-17 01:00:00,56.3,52.0,29.98,West,277,3.7,8.7,85,0.00,n/a,n/a,-99.99,Henriksen +1-Wire,2013-04-17 05:00:00,
2013-04-17 01:01:00,56.3,52.1,29.98,WNW,284,4.1,8.7,85,0.00,n/a,n/a,-99.99,Henriksen +1-Wire,2013-04-17 05:01:00,
2013-04-17 01:06:00,56.4,52.1,29.99,WNW,291,3.9,8.7,85,0.00,n/a,n/a,-99.99,Henriksen +1-Wire,2013-04-17 05:06:00,
2013-04-17 01:11:00,56.6,52.3,29.99,WNW,289,2.8,9.5,85,0.00,n/a,n/a,-99.99,Henriksen +1-Wire,2013-04-17 05:11:00,
2013-04-17 01:17:00,56.8,52.4,29.99,WNW,292,5.3,10.2,85,0.00,n/a,n/a,-99.99,Henriksen +1-Wire,2013-04-17 05:17:00,
2013-04-17 03:22:00,56.3,53.0,30.00,WNW,298,1.8,5.6,88,0.00,n/a,n/a,-99.99,Henriksen +1-Wire,2013-04-17 07:22:00,
2013-04-17 03:27:00,56.3,53.0,30.01,NW,308,2.5,5.6,88,0.00,n/a,n/a,-99.99,Henriksen +1-Wire,2013-04-17 07:27:00,
2013-04-17 05:32:00,52.7,41.1,30.06,NNW,342,3.9,11.9,64,0.00,n/a,n/a,-99.99,Henriksen +1-Wire,2013-04-17 09:32:00,
2013-04-17 05:37:00,52.4,41.0,30.06,NNW,343,3.1,9.6,64,0.00,n/a,n/a,-99.99,Henriksen +1-Wire,2013-04-17 09:37:00,
2013-04-17 07:42:00,51.0,35.8,30.12,NNW,340,4.5,14.1,55,0.00,n/a,n/a,-99.99,Henriksen +1-Wire,2013-04-17 11:42:00,
2013-04-17 09:02:00,53.0,32.8,30.13,NNW,328,5.7,10.3,45,0.00,n/a,n/a,-99.99,Henriksen +1-Wire,2013-04-17 13:02:00,
2013-04-17 09:07:00,53.3,33.0,30.13,NNW,331,4.3,10.2,45,0.00,n/a,n/a,-99.99,Henriksen +1-Wire,2013-04-17 13:07:00,
2013-04-17 09:12:00,53.6,33.4,30.13,NW,318,3.1,9.5,46,0.00,n/a,n/a,-99.99,Henriksen +1-Wire,2013-04-17 13:12:00,
2013-04-17 09:17:00,54.0,33.9,30.13,NW,319,1.9,8.0,46,0.00,n/a,n/a,-99.99,Henriksen +1-Wire,2013-04-17 13:17:00,
2013-04-17 09:22:00,54.4,34.2,30.13,NNW,335,3.6,8.0,46,0.00,n/a,n/a,-99.99,Henriksen +1-Wire,2013-04-17 13:22:00,
2013-04-17 09:27:00,54.6,34.3,30.14,NNW,337,4.3,7.1,45,0.00,n/a,n/a,-99.99,Henriksen +1-Wire,2013-04-17 13:27:00,
2013-04-17 09:32:00,55.0,34.4,30.14,North,355,4.7,9.4,45,0.00,n/a,n/a,-99.99,Henriksen +1-Wire,2013-04-17 13:32:00,
2013-04-17 09:37:00,55.1,34.1,30.13,NNW,343,5.7,10.1,44,0.00,n/a,n/a,-99.99,Henriksen +1-Wire,2013-04-17 13:37:00,
2013-04-17 09:42:00,55.3,34.0,30.13,NNW,334,4.0,10.1,44,0.00,n/a,n/a,-99.99,Henriksen +1-Wire,2013-04-17 13:42:00,
2013-04-17 11:47:00,60.5,35.2,30.15,NNE,24,5.2,8.4,38,0.00,n/a,n/a,-99.99,Henriksen +1-Wire,2013-04-17 15:47:00,
2013-04-17 13:52:00,63.8,34.5,30.13,North,1,3.0,9.4,33,0.00,n/a,n/a,-99.99,Henriksen +1-Wire,2013-04-17 17:52:00,
2013-04-17 15:57:00,64.4,33.6,30.15,NNE,24,3.9,7.9,31,0.00,n/a,n/a,-99.99,Henriksen +1-Wire,2013-04-17 19:57:00,
2013-04-17 16:02:00,62.7,34.8,30.15,SE,144,4.3,7.9,34,0.00,n/a,n/a,-99.99,Henriksen +1-Wire,2013-04-17 20:02:00,
2013-04-17 16:07:00,61.4,37.4,30.15,SE,140,3.5,7.2,40,0.00,n/a,n/a,-99.99,Henriksen +1-Wire,2013-04-17 20:07:00,
2013-04-17 16:12:00,60.6,39.0,30.16,SSE,159,4.6,7.9,44,0.00,n/a,n/a,-99.99,Henriksen +1-Wire,2013-04-17 20:12:00,
2013-04-17 16:17:00,59.9,39.3,30.16,SSE,147,5.8,9.4,46,0.00,n/a,n/a,-99.99,Henriksen +1-Wire,2013-04-17 20:17:00,
2013-04-17 18:22:00,49.6,41.7,30.21,SSW,201,2.1,4.1,74,0.00,n/a,n/a,-99.99,Henriksen +1-Wire,2013-04-17 22:22:00,
2013-04-17 20:27:00,45.9,39.8,30.27,SE,142,0.0,0.8,79,0.00,n/a,n/a,-99.99,Henriksen +1-Wire,2013-04-18 00:27:00,
2013-04-17 20:32:00,45.8,39.7,30.28,ESE,108,0.0,0.8,79,0.00,n/a,n/a,-99.99,Henriksen +1-Wire,2013-04-18 00:32:00,
2013-04-17 20:37:00,45.6,39.5,30.28,ESE,102,0.0,0.0,79,0.00,n/a,n/a,-99.99,Henriksen +1-Wire,2013-04-18 00:37:00,
2013-04-17 22:42:00,45.0,36.1,30.29,NE,41,0.3,2.4,70,0.00,n/a,n/a,-99.99,Henriksen +1-Wire,2013-04-18 02:42:00,
2013-04-17 22:48:00,44.6,36.5,30.29,East,80,0.0,2.4,73,0.00,n/a,n/a,-99.99,Henriksen +1-Wire,2013-04-18 02:48:00,
2013-04-17 22:53:00,44.3,36.8,30.30,SE,130,0.0,0.0,74,0.00,n/a,n/a,-99.99,Henriksen +1-Wire,2013-04-18 02:53:00,
2013-04-17 22:59:00,44.1,37.1,30.30,East,95,0.0,0.0,76,0.00,n/a,n/a,-99.99,Henriksen +1-Wire,2013-04-18 02:59:00,
2013-04-17 23:05:00,43.8,37.2,30.30,NE,56,0.0,0.0,77,0.00,n/a,n/a,-99.99,Henriksen +1-Wire,2013-04-18 03:05:00,